Weesatche, Texas
Current Conditions -  °F | °C
As of 5:51 PM on Friday 24 Oct 2014 (Local Time) from KVCT Reporting Station
Clear Clear  
Wind Chill: 84°   Ceiling: Unl
Heat Index: 84°   Visibility: 10mi
Dew Point: 57°   Wind: 9mph
Humidity: 40%   Direction: 80°E
Pressure: 30.07"   Gusts: NA
Location:  28.85°N, 97.45°W
Report Text: KVCT 242251Z 08008KT 10SM CLR 29/14 A3007 RMK AO2 SLP181 T02890139
Loading
Personal Weather Stations






























Interactive Weather Map
Tropical Storm Tracking
New forecast layout! Learn more

10-Day Weather Forecast

Advertisements
Track Severe Weather on mobile